createdAt,value
2023-04-18T00:01:55.280Z,88.76
2023-04-18T00:04:22.210Z,88.69
2023-04-18T00:06:50.072Z,88.48
2023-04-18T00:09:17.012Z,88.39
2023-04-18T00:11:43.897Z,88.36
2023-04-18T00:14:10.847Z,88.59
2023-04-18T00:16:38.931Z,88.76
2023-04-18T00:19:06.290Z,88.42
2023-04-18T00:21:33.260Z,88.46
2023-04-18T00:24:00.081Z,88.71
2023-04-18T00:26:27.793Z,88.54
2023-04-18T00:28:54.610Z,88.37
2023-04-18T00:31:21.526Z,88.69
2023-04-18T00:33:48.406Z,88.59
2023-04-18T00:36:15.696Z,88.58
2023-04-18T00:38:42.495Z,88.66
2023-04-18T00:41:09.358Z,88.59
2023-04-18T00:43:37.378Z,88.62
2023-04-18T00:46:04.276Z,88.51
2023-04-18T00:48:31.075Z,88.82
2023-04-18T00:50:58.247Z,88.53
2023-04-18T00:53:25.247Z,88.86
2023-04-18T00:55:53.182Z,88.83
2023-04-18T00:58:20.391Z,88.58
2023-04-18T01:00:47.636Z,88.66
2023-04-18T01:03:14.871Z,88.81
2023-04-18T01:05:41.822Z,88.54
2023-04-18T01:08:08.704Z,88.52
2023-04-18T01:10:36.477Z,88.29
2023-04-18T01:13:19.599Z,88.60
2023-04-18T01:15:48.592Z,88.71
2023-04-18T01:18:19.380Z,88.50
2023-04-18T01:20:48.679Z,88.39
2023-04-18T01:23:17.140Z,88.44
2023-04-18T01:25:45.119Z,88.27
2023-04-18T01:28:14.410Z,88.64
2023-04-18T01:30:41.440Z,88.56
2023-04-18T01:33:08.330Z,88.51
2023-04-18T01:35:35.214Z,88.27
2023-04-18T01:38:02.125Z,88.57
2023-04-18T01:40:30.274Z,88.45
2023-04-18T01:42:57.260Z,88.37
2023-04-18T01:45:24.223Z,88.17
2023-04-18T01:47:51.121Z,88.43
2023-04-18T01:50:18.012Z,88.42
2023-04-18T01:52:44.842Z,88.49
2023-04-18T01:55:11.788Z,88.46
2023-04-18T01:57:38.601Z,88.41
2023-04-18T02:00:06.553Z,88.20
2023-04-18T02:02:42.126Z,88.29
2023-04-18T02:05:09.608Z,88.32
2023-04-18T02:07:40.144Z,88.37
2023-04-18T02:10:08.077Z,88.35
2023-04-18T02:12:34.843Z,88.35
2023-04-18T02:15:01.661Z,88.40
2023-04-18T02:17:29.010Z,88.07
2023-04-18T02:19:56.064Z,87.98
2023-04-18T02:22:22.846Z,87.98
2023-04-18T02:24:49.680Z,87.94
2023-04-18T02:27:16.508Z,88.03
2023-04-18T02:29:43.291Z,87.93
2023-04-18T02:32:10.093Z,87.77
2023-04-18T02:34:37.265Z,87.78
2023-04-18T02:37:04.810Z,87.89
2023-04-18T02:39:32.588Z,87.77
2023-04-18T02:41:59.492Z,87.63
2023-04-18T02:44:26.359Z,87.79
2023-04-18T02:46:53.173Z,87.65
2023-04-18T02:49:20.255Z,87.51
2023-04-18T02:51:47.408Z,87.53
2023-04-18T02:54:15.429Z,87.50
2023-04-18T02:56:54.472Z,87.38
2023-04-18T02:59:44.467Z,87.67
2023-04-18T03:02:30.506Z,87.53
2023-04-18T03:05:03.459Z,87.85
2023-04-18T03:07:31.165Z,87.35
2023-04-18T03:10:00.157Z,87.53
2023-04-18T03:12:31.590Z,87.37
2023-04-18T03:14:58.473Z,87.39
2023-04-18T03:17:25.481Z,87.47
2023-04-18T03:19:53.009Z,87.55
2023-04-18T03:22:20.605Z,87.45
2023-04-18T03:24:53.751Z,87.29
2023-04-18T03:27:22.674Z,87.38
2023-04-18T03:29:49.467Z,87.53
2023-04-18T03:32:17.527Z,87.20
2023-04-18T03:34:44.517Z,87.33
2023-04-18T03:37:11.849Z,87.20
2023-04-18T03:39:44.368Z,87.50
2023-04-18T03:42:11.292Z,87.28
2023-04-18T03:44:39.197Z,87.03
2023-04-18T03:47:06.597Z,87.13
2023-04-18T03:49:35.765Z,87.31
2023-04-18T03:52:03.665Z,87.51
2023-04-18T03:54:30.459Z,87.37
2023-04-18T03:56:59.536Z,87.37
2023-04-18T03:59:27.878Z,87.39
2023-04-18T04:01:56.170Z,87.42
2023-04-18T04:04:26.483Z,87.57
2023-04-18T04:06:53.420Z,87.31
2023-04-18T04:09:20.297Z,87.30
2023-04-18T04:11:47.199Z,87.25
2023-04-18T04:14:16.274Z,87.38
2023-04-18T04:16:46.126Z,87.40
2023-04-18T04:19:15.903Z,87.40
2023-04-18T04:22:05.527Z,87.59
2023-04-18T04:24:33.889Z,87.30
2023-04-18T04:27:01.532Z,87.65
2023-04-18T04:29:29.330Z,87.32
2023-04-18T04:31:59.482Z,87.39
2023-04-18T04:34:36.891Z,87.51
2023-04-18T04:37:05.965Z,87.54
2023-04-18T04:39:39.139Z,87.62
2023-04-18T04:42:19.997Z,87.47
2023-04-18T04:44:55.172Z,87.84
2023-04-18T04:47:22.566Z,87.91
2023-04-18T04:49:49.437Z,87.83
2023-04-18T04:52:16.282Z,87.72
2023-04-18T04:54:45.154Z,87.69
2023-04-18T04:57:14.171Z,87.55
2023-04-18T04:59:41.252Z,87.55
2023-04-18T05:02:08.155Z,87.72
2023-04-18T05:04:36.372Z,87.50
2023-04-18T05:07:03.789Z,87.32
2023-04-18T05:09:30.616Z,87.12
2023-04-18T05:11:57.411Z,87.53
2023-04-18T05:14:27.902Z,87.53
2023-04-18T05:16:55.863Z,87.33
2023-04-18T05:19:23.184Z,87.54
2023-04-18T05:21:49.948Z,87.36
2023-04-18T05:24:16.950Z,87.34
2023-04-18T05:26:43.971Z,87.29
2023-04-18T05:29:10.819Z,87.24
2023-04-18T05:31:37.591Z,87.40
2023-04-18T05:34:04.413Z,87.43
2023-04-18T05:36:32.005Z,87.20
2023-04-18T05:38:58.822Z,87.44
2023-04-18T05:41:25.715Z,87.25
2023-04-18T05:44:04.297Z,87.46
2023-04-18T05:46:32.976Z,87.40
2023-04-18T05:48:59.862Z,87.53
2023-04-18T05:51:28.757Z,87.60
2023-04-18T05:53:55.668Z,87.39
2023-04-18T05:56:22.497Z,87.28
2023-04-18T05:58:51.495Z,87.52
2023-04-18T06:01:21.654Z,87.45
2023-04-18T06:03:48.694Z,87.42
2023-04-18T06:06:16.067Z,87.25
2023-04-18T06:08:42.889Z,87.18
2023-04-18T06:11:09.719Z,87.36
2023-04-18T06:13:37.520Z,87.17
2023-04-18T06:16:04.504Z,87.17
2023-04-18T06:18:31.793Z,86.90
2023-04-18T06:20:58.738Z,86.95
2023-04-18T06:23:25.544Z,86.67
2023-04-18T06:25:52.375Z,86.63
2023-04-18T06:28:19.230Z,86.93
2023-04-18T06:30:46.053Z,86.66
2023-04-18T06:33:12.829Z,86.82
2023-04-18T06:35:39.734Z,86.39
2023-04-18T06:38:06.559Z,86.59
2023-04-18T06:40:33.358Z,86.36
2023-04-18T06:43:00.140Z,86.47
2023-04-18T06:45:28.267Z,86.54
2023-04-18T06:47:55.138Z,86.18
2023-04-18T06:50:21.994Z,86.18
2023-04-18T06:52:48.763Z,85.93
2023-04-18T06:55:16.959Z,86.06
2023-04-18T06:57:46.389Z,85.86
2023-04-18T07:00:13.732Z,86.03
2023-04-18T07:02:41.330Z,85.77
2023-04-18T07:05:08.637Z,85.92
2023-04-18T07:07:35.564Z,85.90
2023-04-18T07:10:02.490Z,85.73
2023-04-18T07:12:29.303Z,85.48
2023-04-18T07:14:56.056Z,85.56
2023-04-18T07:17:22.938Z,85.41
2023-04-18T07:19:49.813Z,85.43
2023-04-18T07:22:16.617Z,85.14
2023-04-18T07:24:44.285Z,85.29
2023-04-18T07:27:11.040Z,84.86
2023-04-18T07:29:37.816Z,84.74
2023-04-18T07:32:06.187Z,84.94
2023-04-18T07:34:36.354Z,84.48
2023-04-18T07:37:03.585Z,84.62
2023-04-18T07:39:32.072Z,84.21
2023-04-18T07:41:59.105Z,83.86
2023-04-18T07:44:26.038Z,83.74
2023-04-18T07:46:53.654Z,83.35
2023-04-18T07:49:20.452Z,83.29
2023-04-18T07:51:47.301Z,83.16
2023-04-18T07:54:14.060Z,82.90
2023-04-18T07:56:41.257Z,83.08
2023-04-18T07:59:08.229Z,82.68
2023-04-18T08:01:35.091Z,82.56
2023-04-18T08:04:02.330Z,82.49
2023-04-18T08:06:29.459Z,82.74
2023-04-18T08:08:56.572Z,82.29
2023-04-18T08:11:23.418Z,82.38
2023-04-18T08:13:50.467Z,82.47
2023-04-18T08:16:17.583Z,82.17
2023-04-18T08:18:44.566Z,82.34
2023-04-18T08:21:11.496Z,82.30
2023-04-18T08:23:38.498Z,82.13
2023-04-18T08:26:05.537Z,82.11
2023-04-18T08:28:32.571Z,82.10
2023-04-18T08:30:59.364Z,81.92
2023-04-18T08:33:26.660Z,81.64
2023-04-18T08:35:53.464Z,81.65
2023-04-18T08:38:20.359Z,81.74
2023-04-18T08:40:47.488Z,81.30
2023-04-18T08:43:15.424Z,81.50
2023-04-18T08:45:43.335Z,81.32
2023-04-18T08:48:14.483Z,81.14
2023-04-18T08:50:42.115Z,81.39
2023-04-18T08:53:09.672Z,81.05
2023-04-18T08:55:37.323Z,80.90
2023-04-18T08:58:07.225Z,80.80
2023-04-18T09:00:34.330Z,80.25
2023-04-18T09:03:03.138Z,80.17
2023-04-18T09:05:30.189Z,80.32
2023-04-18T09:07:57.077Z,80.18
2023-04-18T09:10:33.177Z,80.01
2023-04-18T09:13:03.564Z,79.84
2023-04-18T09:15:31.054Z,79.59
2023-04-18T09:18:00.451Z,79.53
2023-04-18T09:20:30.964Z,79.02
2023-04-18T09:23:00.932Z,79.28
2023-04-18T09:25:29.573Z,79.17
2023-04-18T09:28:01.256Z,79.01
2023-04-18T09:30:39.607Z,78.45
2023-04-18T09:33:10.242Z,78.65
2023-04-18T09:35:38.234Z,78.16
2023-04-18T09:38:06.116Z,78.33
2023-04-18T09:40:33.482Z,78.16
2023-04-18T09:43:00.766Z,78.01
2023-04-18T09:45:27.636Z,78.22
2023-04-18T09:47:55.947Z,77.91
2023-04-18T09:50:22.773Z,77.79
2023-04-18T09:52:49.602Z,77.98
2023-04-18T09:55:19.762Z,77.85
2023-04-18T09:57:48.537Z,77.65
2023-04-18T10:00:21.768Z,77.54
2023-04-18T10:02:58.828Z,77.54
2023-04-18T10:05:28.237Z,77.14
2023-04-18T10:07:55.434Z,77.19
2023-04-18T10:10:22.659Z,76.98
2023-04-18T10:12:51.056Z,76.84
2023-04-18T10:15:18.433Z,76.96
2023-04-18T10:18:03.656Z,77.12
2023-04-18T10:20:33.347Z,76.70
2023-04-18T10:23:00.254Z,76.45
2023-04-18T10:25:39.298Z,76.11
2023-04-18T10:28:09.655Z,76.23
2023-04-18T10:30:42.666Z,75.68
2023-04-18T10:36:01.287Z,75.93
2023-04-18T10:38:28.182Z,75.95
2023-04-18T10:41:14.085Z,75.63
2023-04-18T10:44:12.264Z,75.79
2023-04-18T10:46:48.512Z,75.72
2023-04-18T10:49:34.736Z,75.56
2023-04-18T10:52:03.062Z,75.42
2023-04-18T10:54:36.029Z,75.49
2023-04-18T10:57:04.351Z,75.49
2023-04-18T10:59:32.987Z,75.47
2023-04-18T11:02:05.367Z,75.30
2023-04-18T11:04:32.277Z,75.20
2023-04-18T11:06:59.207Z,75.16
2023-04-18T11:09:26.148Z,75.02
2023-04-18T11:12:06.700Z,75.32
2023-04-18T11:14:41.461Z,75.10
2023-04-18T11:17:22.469Z,75.01
2023-04-18T11:19:50.140Z,74.90
2023-04-18T11:22:17.804Z,74.98
2023-04-18T11:24:45.244Z,75.12
2023-04-18T11:27:12.898Z,74.92
2023-04-18T11:29:39.775Z,74.77
2023-04-18T11:32:08.081Z,74.88
2023-04-18T11:34:36.060Z,74.52
2023-04-18T11:37:07.038Z,74.65
2023-04-18T11:39:35.745Z,74.56
2023-04-18T11:42:02.509Z,74.85
2023-04-18T11:44:29.253Z,74.71
2023-04-18T11:46:56.074Z,74.41
2023-04-18T11:49:26.305Z,74.62
2023-04-18T11:51:53.825Z,74.51
2023-04-18T11:54:45.751Z,74.47
2023-04-18T11:57:23.243Z,74.25
2023-04-18T11:59:50.908Z,74.14
2023-04-18T12:02:17.992Z,74.11
2023-04-18T12:04:56.783Z,74.24
2023-04-18T12:07:48.332Z,73.72
2023-04-18T12:10:21.124Z,73.89
2023-04-18T12:12:51.772Z,73.86
2023-04-18T12:15:19.541Z,74.04
2023-04-18T12:17:48.728Z,74.00
2023-04-18T12:20:16.314Z,73.81
2023-04-18T12:22:46.392Z,74.19
2023-04-18T12:25:27.141Z,73.92
2023-04-18T12:27:58.257Z,74.10
2023-04-18T12:30:44.232Z,73.71
2023-04-18T12:33:11.317Z,73.37
2023-04-18T12:35:38.118Z,73.04
2023-04-18T12:38:05.144Z,73.26
2023-04-18T12:40:32.011Z,73.20
2023-04-18T12:42:59.282Z,73.23
2023-04-18T12:45:26.884Z,73.08
2023-04-18T12:47:53.959Z,73.28
2023-04-18T12:50:22.881Z,72.84
2023-04-18T12:52:52.251Z,73.06
2023-04-18T12:55:19.425Z,72.49
2023-04-18T12:57:46.490Z,72.33
2023-04-18T13:00:14.284Z,71.75
2023-04-18T13:02:43.871Z,71.42
2023-04-18T13:05:12.799Z,71.23
2023-04-18T13:07:40.923Z,71.17
2023-04-18T13:10:09.458Z,71.00
2023-04-18T13:12:36.733Z,71.19
2023-04-18T13:15:04.539Z,71.29
2023-04-18T13:17:31.550Z,70.87
2023-04-18T13:19:58.478Z,70.93
2023-04-18T13:22:25.736Z,70.68
2023-04-18T13:24:53.750Z,70.38
2023-04-18T13:27:20.582Z,70.07
2023-04-18T13:29:47.475Z,69.96
2023-04-18T13:32:14.334Z,69.93
2023-04-18T13:34:45.992Z,69.47
2023-04-18T13:37:13.723Z,69.39
2023-04-18T13:39:40.728Z,69.64
2023-04-18T13:42:08.009Z,69.50
2023-04-18T13:44:36.207Z,69.58
2023-04-18T13:47:05.719Z,69.52
2023-04-18T13:49:33.946Z,69.23
2023-04-18T13:52:01.141Z,69.21
2023-04-18T13:54:29.110Z,69.27
2023-04-18T13:56:57.882Z,69.21
2023-04-18T13:59:28.393Z,69.31
2023-04-18T14:01:55.757Z,69.07
2023-04-18T14:04:23.399Z,69.01
2023-04-18T14:06:50.879Z,69.07
2023-04-18T14:09:18.153Z,69.43
2023-04-18T14:11:45.454Z,69.34
2023-04-18T14:14:12.236Z,69.30
2023-04-18T14:16:39.041Z,69.27
2023-04-18T14:19:05.859Z,68.99
2023-04-18T14:21:32.643Z,69.11
2023-04-18T14:23:59.432Z,69.22
2023-04-18T14:26:26.208Z,69.42
2023-04-18T14:28:53.103Z,69.20
2023-04-18T14:31:20.187Z,68.97
2023-04-18T14:33:47.007Z,68.85
2023-04-18T14:36:17.077Z,69.29
2023-04-18T14:38:47.926Z,68.99
2023-04-18T14:41:14.928Z,69.11
2023-04-18T14:43:41.740Z,69.08
2023-04-18T14:46:16.838Z,68.90
2023-04-18T14:48:47.481Z,68.51
2023-04-18T14:51:17.682Z,68.40
2023-04-18T14:53:44.973Z,68.26
2023-04-18T14:56:12.000Z,68.26
2023-04-18T14:58:38.759Z,68.30
2023-04-18T15:01:05.636Z,67.97
2023-04-18T15:03:32.673Z,67.91
2023-04-18T15:05:59.763Z,67.77
2023-04-18T15:08:26.571Z,67.60
2023-04-18T15:10:54.272Z,67.70
2023-04-18T15:13:21.209Z,67.67
2023-04-18T15:15:55.350Z,67.21
2023-04-18T15:18:22.417Z,67.09
2023-04-18T15:20:49.297Z,66.97
2023-04-18T15:23:16.540Z,67.07
2023-04-18T15:25:44.629Z,66.57
2023-04-18T15:28:13.321Z,66.49
2023-04-18T15:30:40.290Z,66.60
2023-04-18T15:33:08.230Z,66.58
2023-04-18T15:35:36.146Z,66.09
2023-04-18T15:38:03.044Z,65.23
2023-04-18T15:40:30.149Z,65.17
2023-04-18T15:42:57.955Z,65.14
2023-04-18T15:45:24.843Z,65.20
2023-04-18T15:47:51.825Z,65.34
2023-04-18T15:50:18.717Z,65.57
2023-04-18T15:52:45.548Z,65.60
2023-04-18T15:55:13.544Z,65.25
2023-04-18T15:57:41.794Z,65.40
2023-04-18T16:00:16.384Z,65.70
2023-04-18T16:02:47.132Z,65.64
2023-04-18T16:05:14.103Z,65.26
2023-04-18T16:07:42.437Z,65.68
2023-04-18T16:10:12.977Z,65.49
2023-04-18T16:12:39.992Z,65.43
2023-04-18T16:15:08.818Z,65.47
2023-04-18T16:17:36.713Z,65.40
2023-04-18T16:20:08.589Z,64.87
2023-04-18T16:22:36.351Z,64.81
2023-04-18T16:25:04.242Z,64.27
2023-04-18T16:27:31.026Z,64.41
2023-04-18T16:29:57.949Z,63.86
2023-04-18T16:32:25.251Z,63.98
2023-04-18T16:34:52.194Z,63.90
2023-04-18T16:37:19.098Z,64.05
2023-04-18T16:39:46.282Z,64.57
2023-04-18T16:42:15.865Z,64.35
2023-04-18T16:44:42.892Z,64.77
2023-04-18T16:47:09.843Z,65.18
2023-04-18T16:49:37.663Z,65.33
2023-04-18T16:52:04.618Z,65.87
2023-04-18T16:54:31.584Z,65.88
2023-04-18T16:56:58.516Z,66.13
2023-04-18T16:59:25.369Z,66.59
2023-04-18T17:01:52.491Z,66.67
2023-04-18T17:04:19.334Z,66.73
2023-04-18T17:06:46.811Z,67.15
2023-04-18T17:09:14.948Z,67.13
2023-04-18T17:11:41.958Z,67.77
2023-04-18T17:14:09.081Z,67.92
2023-04-18T17:16:38.749Z,67.89
2023-04-18T17:19:05.782Z,67.88
2023-04-18T17:21:33.963Z,68.13
2023-04-18T17:24:03.876Z,68.27
2023-04-18T17:26:31.159Z,68.38
2023-04-18T17:28:58.066Z,68.57
2023-04-18T17:31:24.929Z,68.78
2023-04-18T17:33:51.797Z,68.75
2023-04-18T17:36:18.654Z,68.72
2023-04-18T17:38:49.049Z,69.01
2023-04-18T17:41:20.328Z,68.87
2023-04-18T17:43:48.206Z,69.25
2023-04-18T17:46:15.101Z,69.01
2023-04-18T17:48:42.018Z,68.91
2023-04-18T17:51:08.815Z,69.12
2023-04-18T17:53:35.641Z,68.87
2023-04-18T17:56:03.901Z,68.81
2023-04-18T17:58:30.817Z,69.12
2023-04-18T18:00:57.729Z,68.73
2023-04-18T18:03:24.761Z,68.68
2023-04-18T18:05:52.037Z,68.75
2023-04-18T18:08:19.308Z,68.83
2023-04-18T18:10:47.338Z,68.64
2023-04-18T18:13:14.117Z,68.87
2023-04-18T18:15:40.918Z,68.64
2023-04-18T18:18:07.842Z,69.05
2023-04-18T18:20:34.779Z,68.87
2023-04-18T18:23:02.067Z,68.98
2023-04-18T18:25:29.318Z,68.60
2023-04-18T18:27:56.171Z,68.69
2023-04-18T18:30:23.001Z,68.40
2023-04-18T18:32:49.840Z,68.50
2023-04-18T18:35:16.831Z,68.35
2023-04-18T18:37:43.662Z,68.02
2023-04-18T18:40:11.015Z,67.98
2023-04-18T18:42:37.880Z,67.78
2023-04-18T18:45:05.393Z,67.71
2023-04-18T18:47:32.375Z,67.27
2023-04-18T18:49:59.160Z,67.17
2023-04-18T18:52:28.260Z,66.92
2023-04-18T18:54:55.510Z,67.25
2023-04-18T18:57:22.667Z,67.07
2023-04-18T18:59:53.836Z,67.17
2023-04-18T19:02:22.134Z,67.29
2023-04-18T19:04:49.255Z,67.11
2023-04-18T19:07:16.177Z,67.08
2023-04-18T19:09:43.383Z,67.11
2023-04-18T19:12:10.232Z,67.40
2023-04-18T19:14:37.061Z,67.76
2023-04-18T19:17:05.076Z,67.75
2023-04-18T19:19:31.909Z,67.80
2023-04-18T19:22:01.261Z,68.22
2023-04-18T19:24:28.056Z,68.44
2023-04-18T19:26:54.883Z,68.29
2023-04-18T19:29:22.426Z,69.06
2023-04-18T19:31:49.282Z,68.71
2023-04-18T19:34:19.019Z,69.16
2023-04-18T19:36:46.038Z,69.53
2023-04-18T19:39:13.116Z,69.62
2023-04-18T19:41:41.716Z,69.97
2023-04-18T19:44:08.462Z,69.90
2023-04-18T19:46:35.466Z,70.39
2023-04-18T19:49:02.438Z,70.25
2023-04-18T19:51:29.296Z,70.84
2023-04-18T19:53:56.209Z,70.61
2023-04-18T19:56:23.239Z,70.98
2023-04-18T19:58:50.056Z,70.95
2023-04-18T20:01:19.345Z,71.17
2023-04-18T20:03:47.326Z,71.45
2023-04-18T20:06:14.407Z,71.58
2023-04-18T20:08:45.891Z,71.92
2023-04-18T20:11:16.360Z,71.75
2023-04-18T20:13:43.255Z,71.91
2023-04-18T20:16:11.162Z,72.04
2023-04-18T20:18:39.557Z,72.64
2023-04-18T20:21:07.919Z,72.42
2023-04-18T20:23:35.667Z,72.95
2023-04-18T20:26:03.729Z,72.87
2023-04-18T20:28:31.529Z,72.88
2023-04-18T20:30:58.369Z,73.07
2023-04-18T20:33:25.298Z,73.23
2023-04-18T20:35:53.813Z,73.39
2023-04-18T20:38:25.809Z,73.20
2023-04-18T20:40:54.366Z,73.49
2023-04-18T20:43:21.577Z,73.83
2023-04-18T20:45:51.240Z,74.17
2023-04-18T20:48:18.331Z,74.30
2023-04-18T20:50:51.134Z,74.46
2023-04-18T20:53:21.821Z,74.64
2023-04-18T20:55:49.311Z,74.68
2023-04-18T20:58:16.354Z,74.99
2023-04-18T21:00:44.681Z,75.15
2023-04-18T21:03:15.673Z,75.59
2023-04-18T21:05:44.326Z,75.58
2023-04-18T21:08:11.619Z,75.64
2023-04-18T21:10:38.497Z,76.08
2023-04-18T21:13:05.756Z,76.09
2023-04-18T21:15:32.547Z,76.46
2023-04-18T21:17:59.453Z,76.38
2023-04-18T21:20:26.403Z,76.86
2023-04-18T21:22:53.195Z,76.82
2023-04-18T21:25:21.460Z,76.87
2023-04-18T21:27:50.746Z,77.09
2023-04-18T21:30:17.799Z,77.22
2023-04-18T21:32:46.087Z,76.88
2023-04-18T21:35:13.104Z,76.90
2023-04-18T21:37:39.920Z,76.89
2023-04-18T21:40:07.550Z,77.09
2023-04-18T21:42:35.795Z,76.92
2023-04-18T21:45:03.054Z,76.93
2023-04-18T21:47:30.111Z,76.70
2023-04-18T21:49:56.955Z,76.52
2023-04-18T21:52:23.814Z,76.47
2023-04-18T21:54:50.791Z,76.42
2023-04-18T21:57:17.588Z,76.39
2023-04-18T21:59:44.429Z,76.32
2023-04-18T22:02:11.525Z,76.46
2023-04-18T22:04:42.926Z,75.94
2023-04-18T22:07:10.243Z,75.96
2023-04-18T22:09:37.308Z,75.76
2023-04-18T22:12:04.534Z,75.67
2023-04-18T22:14:34.270Z,75.42
2023-04-18T22:17:03.360Z,75.21
2023-04-18T22:19:31.521Z,75.35
2023-04-18T22:21:58.595Z,75.01
2023-04-18T22:24:26.202Z,74.94
2023-04-18T22:26:53.775Z,74.77
2023-04-18T22:29:20.573Z,74.62
2023-04-18T22:31:47.381Z,74.83
2023-04-18T22:34:14.507Z,74.56
2023-04-18T22:36:42.914Z,74.56
2023-04-18T22:39:09.895Z,74.59
2023-04-18T22:41:36.701Z,74.34
2023-04-18T22:44:06.153Z,74.07
2023-04-18T22:46:33.139Z,73.95
2023-04-18T22:48:59.977Z,73.74
2023-04-18T22:51:28.837Z,73.88
2023-04-18T22:53:56.547Z,73.59
2023-04-18T22:56:23.530Z,73.23
2023-04-18T22:58:50.316Z,72.97
2023-04-18T23:01:17.234Z,73.09
2023-04-18T23:03:44.504Z,72.50
2023-04-18T23:06:11.524Z,72.28
2023-04-18T23:08:38.374Z,72.67
2023-04-18T23:11:05.306Z,72.40
2023-04-18T23:13:32.132Z,72.23
2023-04-18T23:15:59.106Z,72.10
2023-04-18T23:18:29.032Z,71.96
2023-04-18T23:20:55.898Z,71.91
2023-04-18T23:23:22.666Z,71.78
2023-04-18T23:25:49.418Z,71.22
2023-04-18T23:28:17.250Z,70.71
2023-04-18T23:30:44.191Z,70.54
2023-04-18T23:33:11.132Z,70.41
2023-04-18T23:35:37.967Z,69.98
2023-04-18T23:38:04.801Z,70.21
2023-04-18T23:40:31.631Z,69.91
2023-04-18T23:42:59.174Z,69.85
2023-04-18T23:45:29.029Z,69.48
2023-04-18T23:47:56.020Z,69.53
2023-04-18T23:50:22.845Z,68.89
2023-04-18T23:52:49.607Z,69.00
2023-04-18T23:55:16.966Z,68.71
2023-04-18T23:57:44.558Z,68.04
